Terminal Aerodrome Forecast
Issued by NWS Mt. Holly, NJ

Current Version | Previous Version | Text Only | Print | Product List | Glossary On
Versions: 1 2 3 4 5 6 7 8 9 10 11 12 13 14 15 16 17 18 19 20 21 22
000
FTUS41 KPHI 110837 AAB
TAFACY
TAF AMD
KACY 110837Z 1109/1206 26005KT P6SM SCT006 BKN080
      TEMPO 1110/1114 6SM -SHRA BR BKN006 OVC080
     FM111400 29007KT P6SM SCT025 BKN060
     FM111700 26007KT P6SM SCT040 BKN100
     FM120100 VRB03KT P6SM SCT060 BKN250=

USA.gov is the U.S. government's official web portal to all federal, state and local government web resources and services.